createdAt,value
2023-03-06T00:01:46.819Z,-3.73
2023-03-06T00:06:54.850Z,-3.73
2023-03-06T00:12:02.254Z,-3.76
2023-03-06T00:17:09.650Z,-3.79
2023-03-06T00:22:17.983Z,-3.85
2023-03-06T00:27:26.690Z,-3.87
2023-03-06T00:32:34.406Z,-3.90
2023-03-06T00:37:42.665Z,-3.94
2023-03-06T00:42:51.236Z,-3.96
2023-03-06T00:47:59.777Z,-3.98
2023-03-06T00:53:07.296Z,-4.00
2023-03-06T00:58:14.656Z,-4.03
2023-03-06T01:03:22.497Z,-4.05
2023-03-06T01:08:31.054Z,-4.09
2023-03-06T01:13:38.709Z,-4.12
2023-03-06T01:18:47.353Z,-4.17
2023-03-06T01:23:55.251Z,-4.17
2023-03-06T01:29:04.590Z,-4.20
2023-03-06T01:34:11.970Z,-4.23
2023-03-06T01:39:19.912Z,-4.25
2023-03-06T01:44:27.725Z,-4.27
2023-03-06T01:49:39.471Z,-4.29
2023-03-06T01:54:50.393Z,-4.32
2023-03-06T02:00:04.998Z,-4.33
2023-03-06T02:05:21.227Z,-4.34
2023-03-06T02:10:29.088Z,-4.36
2023-03-06T02:15:36.970Z,-4.37
2023-03-06T02:20:52.868Z,-4.43
2023-03-06T02:26:01.872Z,-4.42
2023-03-06T02:31:10.985Z,-4.45
2023-03-06T02:36:19.750Z,-4.48
2023-03-06T02:41:27.663Z,-4.51
2023-03-06T02:46:35.767Z,-4.54
2023-03-06T02:51:43.254Z,-4.54
2023-03-06T02:56:50.785Z,-4.55
2023-03-06T03:01:58.560Z,-4.55
2023-03-06T03:07:06.396Z,-4.55
2023-03-06T03:12:15.412Z,-4.58
2023-03-06T03:17:24.331Z,-4.57
2023-03-06T03:22:32.145Z,-4.58
2023-03-06T03:27:39.757Z,-4.59
2023-03-06T03:32:48.027Z,-4.59
2023-03-06T03:37:55.807Z,-4.61
2023-03-06T03:43:03.858Z,-4.61
2023-03-06T03:48:11.885Z,-4.61
2023-03-06T03:53:19.728Z,-4.62
2023-03-06T03:58:28.052Z,-4.63
2023-03-06T04:03:36.007Z,-4.64
2023-03-06T04:08:45.499Z,-4.66
2023-03-06T04:13:53.032Z,-4.69
2023-03-06T04:19:00.797Z,-4.71
2023-03-06T04:24:10.164Z,-4.73
2023-03-06T04:29:17.705Z,-4.74
2023-03-06T04:34:25.240Z,-4.75
2023-03-06T04:39:33.244Z,-4.77
2023-03-06T04:44:42.014Z,-4.77
2023-03-06T04:49:49.844Z,-4.78
2023-03-06T04:54:57.547Z,-4.79
2023-03-06T05:00:06.748Z,-4.81
2023-03-06T05:05:15.969Z,-4.83
2023-03-06T05:10:24.332Z,-4.85
2023-03-06T05:15:32.265Z,-4.85
2023-03-06T05:20:39.886Z,-4.87
2023-03-06T05:25:47.432Z,-4.87
2023-03-06T05:30:55.252Z,-4.87
2023-03-06T05:36:02.736Z,-4.85
2023-03-06T05:41:12.512Z,-4.84
2023-03-06T05:46:20.114Z,-4.82
2023-03-06T05:51:28.413Z,-4.82
2023-03-06T05:56:35.875Z,-4.78
2023-03-06T06:01:43.176Z,-4.75
2023-03-06T06:06:52.405Z,-4.72
2023-03-06T06:12:01.817Z,-4.67
2023-03-06T06:17:09.790Z,-4.63
2023-03-06T06:22:17.269Z,-4.56
2023-03-06T06:27:24.638Z,-4.50
2023-03-06T06:32:32.344Z,-4.42
2023-03-06T06:37:39.983Z,-4.33
2023-03-06T06:42:48.345Z,-4.25
2023-03-06T06:47:56.018Z,-4.16
2023-03-06T06:53:03.990Z,-4.06
2023-03-06T06:58:11.695Z,-3.98
2023-03-06T07:03:19.435Z,-3.85
2023-03-06T07:08:30.106Z,-3.74
2023-03-06T07:13:38.467Z,-3.62
2023-03-06T07:18:46.797Z,-3.50
2023-03-06T07:23:54.791Z,-3.38
2023-03-06T07:29:09.374Z,-3.27
2023-03-06T07:34:21.850Z,-3.19
2023-03-06T07:39:33.999Z,-3.04
2023-03-06T07:44:45.147Z,-2.94
2023-03-06T07:49:58.180Z,-2.78
2023-03-06T07:55:07.278Z,-2.59
2023-03-06T08:00:17.908Z,-2.38
2023-03-06T08:05:26.287Z,-2.22
2023-03-06T08:10:34.603Z,-2.05
2023-03-06T08:15:49.509Z,-1.92
2023-03-06T08:21:06.282Z,-1.80
2023-03-06T08:26:17.977Z,-1.66
2023-03-06T08:31:37.364Z,-1.51
2023-03-06T08:36:45.933Z,-1.35
2023-03-06T08:41:54.675Z,-1.19
2023-03-06T08:47:02.353Z,-1.01
2023-03-06T08:52:11.562Z,-0.83
2023-03-06T08:57:19.097Z,-0.65
2023-03-06T09:02:26.469Z,-0.49
2023-03-06T09:07:34.790Z,-0.31
2023-03-06T09:12:50.601Z,-0.14
2023-03-06T09:18:00.549Z,0.05
2023-03-06T09:23:08.134Z,0.23
2023-03-06T09:28:18.475Z,0.36
2023-03-06T09:33:27.086Z,0.46
2023-03-06T09:38:35.735Z,0.57
2023-03-06T09:43:46.861Z,0.66
2023-03-06T09:49:10.843Z,0.75
2023-03-06T09:54:23.880Z,0.76
2023-03-06T09:59:33.893Z,0.90
2023-03-06T10:04:45.698Z,0.96
2023-03-06T10:09:59.922Z,0.99
2023-03-06T10:15:19.683Z,1.00
2023-03-06T10:20:31.179Z,1.06
2023-03-06T10:25:45.505Z,1.14
2023-03-06T10:31:05.559Z,1.20
2023-03-06T10:36:16.822Z,1.26
2023-03-06T10:41:31.668Z,1.31
2023-03-06T10:46:42.824Z,1.34
2023-03-06T10:52:00.844Z,1.43
2023-03-06T10:57:31.414Z,1.62
2023-03-06T11:02:41.429Z,1.83
2023-03-06T11:07:59.844Z,2.03
2023-03-06T11:13:23.738Z,2.19
2023-03-06T11:18:36.620Z,2.30
2023-03-06T11:23:48.923Z,2.35
2023-03-06T11:29:18.868Z,2.43
2023-03-06T11:34:40.837Z,2.54
2023-03-06T11:39:55.489Z,2.63
2023-03-06T11:45:20.641Z,2.71
2023-03-06T11:50:34.028Z,2.85
2023-03-06T11:55:56.874Z,2.96
2023-03-06T12:01:11.102Z,3.05
2023-03-06T12:06:33.693Z,3.17
2023-03-06T12:11:50.331Z,3.31
2023-03-06T12:17:10.122Z,3.43
2023-03-06T12:22:34.050Z,3.44
2023-03-06T12:27:51.549Z,3.43
2023-03-06T12:33:11.979Z,3.45
2023-03-06T12:38:50.427Z,3.50
2023-03-06T12:44:19.331Z,3.51
2023-03-06T12:49:32.922Z,3.49
2023-03-06T12:54:44.135Z,3.46
2023-03-06T12:59:53.454Z,3.44
2023-03-06T13:10:37.899Z,3.42
2023-03-06T13:15:48.156Z,3.36
2023-03-06T13:20:57.614Z,3.36
2023-03-06T13:26:07.470Z,3.38
2023-03-06T13:31:26.352Z,3.39
2023-03-06T13:36:39.835Z,3.41
2023-03-06T13:42:01.451Z,3.41
2023-03-06T13:47:22.238Z,3.38
2023-03-06T13:52:40.095Z,3.33
2023-03-06T13:58:03.251Z,3.23
2023-03-06T14:03:52.709Z,3.14
2023-03-06T14:09:00.576Z,3.05
2023-03-06T14:14:14.170Z,3.00
2023-03-06T14:19:23.071Z,2.95
2023-03-06T14:24:40.062Z,2.93
2023-03-06T14:29:49.135Z,2.91
2023-03-06T14:34:57.876Z,2.85
2023-03-06T14:40:11.359Z,2.79
2023-03-06T14:45:21.688Z,2.72
2023-03-06T14:50:32.815Z,2.68
2023-03-06T14:55:48.484Z,2.66
2023-03-06T15:00:59.372Z,2.62
2023-03-06T15:06:10.810Z,2.57
2023-03-06T15:11:19.120Z,2.53
2023-03-06T15:16:32.123Z,2.49
2023-03-06T15:21:42.689Z,2.43
2023-03-06T15:26:57.437Z,2.39
2023-03-06T15:32:34.788Z,2.33
2023-03-06T15:37:43.587Z,2.27
2023-03-06T15:42:52.612Z,2.20
2023-03-06T15:48:00.811Z,2.13
2023-03-06T15:53:09.105Z,2.04
2023-03-06T15:58:25.787Z,1.95
2023-03-06T16:03:33.827Z,1.86
2023-03-06T16:08:42.050Z,1.76
2023-03-06T16:13:50.695Z,1.65
2023-03-06T16:18:59.039Z,1.55
2023-03-06T16:24:08.227Z,1.42
2023-03-06T16:29:19.238Z,1.29
2023-03-06T16:34:27.755Z,1.18
2023-03-06T16:39:36.132Z,1.06
2023-03-06T16:44:44.330Z,0.95
2023-03-06T16:49:58.217Z,0.85
2023-03-06T16:55:07.275Z,0.74
2023-03-06T17:00:19.001Z,0.63
2023-03-06T17:05:27.136Z,0.45
2023-03-06T17:10:35.779Z,0.44
2023-03-06T17:15:57.155Z,0.36
2023-03-06T17:21:05.281Z,0.29
2023-03-06T17:26:16.052Z,0.21
2023-03-06T17:31:25.837Z,0.13
2023-03-06T17:36:34.549Z,0.04
2023-03-06T17:41:46.186Z,-0.05
2023-03-06T17:46:54.354Z,-0.13
2023-03-06T17:52:04.878Z,-0.22
2023-03-06T17:57:12.890Z,-0.29
2023-03-06T18:02:21.084Z,-0.36
2023-03-06T18:07:29.842Z,-0.43
2023-03-06T18:12:38.079Z,-0.49
2023-03-06T18:17:47.193Z,-0.52
2023-03-06T18:22:56.027Z,-0.55
2023-03-06T18:28:06.544Z,-0.53
2023-03-06T18:33:15.517Z,-0.50
2023-03-06T18:38:23.739Z,-0.48
2023-03-06T18:43:32.070Z,-0.46
2023-03-06T18:48:40.782Z,-0.44
2023-03-06T18:53:49.238Z,-0.43
2023-03-06T18:58:58.385Z,-0.42
2023-03-06T19:04:07.363Z,-0.43
2023-03-06T19:09:15.753Z,-0.42
2023-03-06T19:14:24.020Z,-0.42
2023-03-06T19:19:32.491Z,-0.42
2023-03-06T19:24:41.643Z,-0.42
2023-03-06T19:29:48.974Z,-0.43
2023-03-06T19:35:00.124Z,-0.42
2023-03-06T19:40:10.600Z,-0.41
2023-03-06T19:45:18.059Z,-0.41
2023-03-06T19:50:30.023Z,-0.41
2023-03-06T19:55:39.243Z,-0.39
2023-03-06T20:00:47.660Z,-0.37
2023-03-06T20:05:54.917Z,-0.36
2023-03-06T20:11:02.356Z,-0.33
2023-03-06T20:16:11.374Z,-0.31
2023-03-06T20:21:19.968Z,-0.30
2023-03-06T20:26:29.735Z,-0.28
2023-03-06T20:31:38.277Z,-0.27
2023-03-06T20:36:46.468Z,-0.26
2023-03-06T20:41:55.237Z,-0.26
2023-03-06T20:47:03.690Z,-0.26
2023-03-06T20:52:12.741Z,-0.26
2023-03-06T20:57:21.152Z,-0.27
2023-03-06T21:02:29.362Z,-0.28
2023-03-06T21:07:37.608Z,-0.28
2023-03-06T21:12:45.861Z,-0.30
2023-03-06T21:17:53.989Z,-0.32
2023-03-06T21:23:03.741Z,-0.33
2023-03-06T21:28:12.079Z,-0.34
2023-03-06T21:33:20.953Z,-0.36
2023-03-06T21:38:29.122Z,-0.38
2023-03-06T21:43:36.497Z,-0.39
2023-03-06T21:48:47.763Z,-0.42
2023-03-06T21:53:56.300Z,-0.44
2023-03-06T21:59:03.885Z,-0.46
2023-03-06T22:04:11.250Z,-0.48
2023-03-06T22:09:20.410Z,-0.50
2023-03-06T22:14:28.677Z,-0.53
2023-03-06T22:19:37.273Z,-0.56
2023-03-06T22:24:45.403Z,-0.60
2023-03-06T22:29:54.699Z,-0.65
2023-03-06T22:35:03.284Z,-0.70
2023-03-06T22:40:13.760Z,-0.76
2023-03-06T22:45:22.818Z,-0.81
2023-03-06T22:50:30.857Z,-0.86
2023-03-06T22:55:40.562Z,-0.91
2023-03-06T23:00:49.215Z,-0.97
2023-03-06T23:05:57.567Z,-1.04
2023-03-06T23:11:09.282Z,-1.08
2023-03-06T23:16:35.615Z,-1.15
2023-03-06T23:22:01.632Z,-1.20
2023-03-06T23:27:31.612Z,-1.27
2023-03-06T23:32:40.334Z,-1.35
2023-03-06T23:37:47.901Z,-1.43
2023-03-06T23:42:56.917Z,-1.52
2023-03-06T23:48:04.325Z,-1.61
2023-03-06T23:53:11.889Z,-1.70
2023-03-06T23:58:21.252Z,-1.78
